createdAt,value
2018-07-03T18:02:03.351Z,22.42
2018-07-03T18:03:03.477Z,22.43
2018-07-03T18:04:56.191Z,22.31
2018-07-03T18:05:56.919Z,22.15
2018-07-03T18:06:56.375Z,22.05
2018-07-03T18:07:56.312Z,21.92
2018-07-03T18:08:55.935Z,21.75
2018-07-03T18:09:55.927Z,21.84
2018-07-03T18:10:55.923Z,21.77
2018-07-03T18:11:55.881Z,21.65
2018-07-03T18:12:55.836Z,21.64
2018-07-03T18:13:55.995Z,21.65
2018-07-03T18:14:55.923Z,21.74
2018-07-03T18:15:56.208Z,21.68
2018-07-03T18:16:56.071Z,21.49
2018-07-03T18:17:56.056Z,21.44
2018-07-03T18:18:55.992Z,21.40
2018-07-03T18:19:55.995Z,21.22
2018-07-03T18:20:55.984Z,21.06
2018-07-03T18:21:55.941Z,20.98
2018-07-03T18:22:55.902Z,20.91
2018-07-03T18:23:55.927Z,20.84
2018-07-03T18:24:56.035Z,20.77
2018-07-03T18:25:55.779Z,20.66
2018-07-03T18:26:55.413Z,20.57
2018-07-03T18:27:55.764Z,20.54
2018-07-03T18:28:55.764Z,20.52
2018-07-03T18:29:55.693Z,20.51
2018-07-03T18:30:55.679Z,20.43
2018-07-03T18:31:55.621Z,20.32
2018-07-03T18:32:55.674Z,20.36
2018-07-03T18:33:55.528Z,20.36
2018-07-03T18:34:55.553Z,20.33
2018-07-03T18:35:55.106Z,20.32
2018-07-03T18:36:55.504Z,20.21
2018-07-03T18:37:55.485Z,20.24
2018-07-03T18:38:55.450Z,20.26
2018-07-03T18:39:55.413Z,20.16
2018-07-03T18:40:55.347Z,20.08
2018-07-03T18:41:55.364Z,19.96
2018-07-03T18:42:55.323Z,19.96
2018-07-03T18:43:55.248Z,19.95
2018-07-03T18:44:55.224Z,19.65
2018-07-03T18:45:55.225Z,19.62
2018-07-03T18:46:55.262Z,19.39
2018-07-03T18:47:55.213Z,19.16
2018-07-03T18:48:55.162Z,19.11
2018-07-03T18:49:55.193Z,18.94
2018-07-03T18:50:55.064Z,18.84
2018-07-03T18:51:55.146Z,18.95
2018-07-03T18:52:55.033Z,18.94
2018-07-03T18:53:55.026Z,18.92
2018-07-03T18:54:54.931Z,19.10
2018-07-03T18:55:54.938Z,19.11
2018-07-03T18:56:54.948Z,18.99
2018-07-03T18:57:54.509Z,18.80
2018-07-03T18:58:54.791Z,18.78
2018-07-03T18:59:54.829Z,18.58
2018-07-03T19:00:54.788Z,18.48
2018-07-03T19:01:54.735Z,18.36
2018-07-03T19:02:54.803Z,18.33
2018-07-03T19:03:54.656Z,18.32
2018-07-03T19:04:54.742Z,18.23
2018-07-03T19:05:54.575Z,18.14
2018-07-03T19:06:54.616Z,18.03
2018-07-03T19:07:54.535Z,18.00
2018-07-03T19:08:54.516Z,17.99
2018-07-03T19:09:54.476Z,17.90
2018-07-03T19:10:54.469Z,17.92
2018-07-03T19:11:54.421Z,17.89
2018-07-03T19:12:54.397Z,17.86
2018-07-03T19:13:53.917Z,17.86
2018-07-03T19:14:54.476Z,17.78
2018-07-03T19:15:54.308Z,17.84
2018-07-03T19:16:54.227Z,17.70
2018-07-03T19:17:54.254Z,17.64
2018-07-03T19:18:54.239Z,17.52
2018-07-03T19:19:54.143Z,17.46
2018-07-03T19:20:54.110Z,17.28
2018-07-03T19:21:54.073Z,17.04
2018-07-03T19:22:54.051Z,17.00
2018-07-03T19:23:54.103Z,16.93
2018-07-03T19:24:53.968Z,16.91
2018-07-03T19:25:53.904Z,16.86
2018-07-03T19:26:53.956Z,16.96
2018-07-03T19:27:53.885Z,16.96
2018-07-03T19:28:53.479Z,17.04
2018-07-03T19:29:53.817Z,16.97
2018-07-03T19:30:53.740Z,16.82
2018-07-03T19:31:53.724Z,16.64
2018-07-03T19:32:53.755Z,16.56
2018-07-03T19:33:53.721Z,16.50
2018-07-03T19:34:53.696Z,16.46
2018-07-03T19:35:53.681Z,16.35
2018-07-03T19:36:53.629Z,16.28
2018-07-03T19:37:53.495Z,16.31
2018-07-03T19:38:53.490Z,16.28
2018-07-03T19:39:53.503Z,16.20
2018-07-03T19:40:53.469Z,16.12
2018-07-03T19:41:53.438Z,15.92
2018-07-03T19:42:53.450Z,15.92
2018-07-03T19:43:53.401Z,15.82
2018-07-03T19:44:53.349Z,15.68
2018-07-03T19:45:53.246Z,15.65
2018-07-03T19:46:53.246Z,15.69
2018-07-03T19:47:53.228Z,15.69
2018-07-03T19:48:53.228Z,15.59
2018-07-03T19:49:52.856Z,15.65
2018-07-03T19:50:53.191Z,15.69
2018-07-03T19:51:53.051Z,15.64
2018-07-03T19:52:53.057Z,15.68
2018-07-03T19:53:52.966Z,15.60
2018-07-03T19:54:52.969Z,15.56
2018-07-03T19:55:53.049Z,15.41
2018-07-03T19:56:52.976Z,15.28
2018-07-03T19:57:52.933Z,15.20
2018-07-03T19:58:52.913Z,15.03
2018-07-03T19:59:52.904Z,14.92
2018-07-03T20:00:52.857Z,14.61
2018-07-03T20:01:52.792Z,14.50
2018-07-03T20:02:52.764Z,14.40
2018-07-03T20:03:52.736Z,14.51
2018-07-03T20:04:52.716Z,14.47
2018-07-03T20:05:53.200Z,14.39
2018-07-03T20:06:52.234Z,14.39
2018-07-03T20:07:52.628Z,14.37
2018-07-03T20:08:52.552Z,14.33
2018-07-03T20:09:52.063Z,14.28
2018-07-03T20:10:52.049Z,14.24
2018-07-03T20:11:52.013Z,14.14
2018-07-03T20:12:52.012Z,14.09
2018-07-03T20:13:51.929Z,14.12
2018-07-03T20:14:51.899Z,14.12
2018-07-03T20:15:51.860Z,14.17
2018-07-03T20:16:51.844Z,14.10
2018-07-03T20:17:51.823Z,14.00
2018-07-03T20:18:51.823Z,13.88
2018-07-03T20:19:51.720Z,13.70
2018-07-03T20:20:51.700Z,13.77
2018-07-03T20:21:51.686Z,13.67
2018-07-03T20:22:51.641Z,13.66
2018-07-03T20:23:51.586Z,13.54
2018-07-03T20:24:51.547Z,13.41
2018-07-03T20:25:51.514Z,13.26
2018-07-03T20:26:51.499Z,13.33
2018-07-03T20:27:51.441Z,13.41
2018-07-03T20:28:51.410Z,13.38
2018-07-03T20:29:51.394Z,13.28
2018-07-03T20:30:51.365Z,13.15
2018-07-03T20:31:51.394Z,13.26
2018-07-03T20:32:51.274Z,13.29
2018-07-03T20:33:51.250Z,13.12
2018-07-03T20:34:51.192Z,13.11
2018-07-03T20:35:51.168Z,13.08
2018-07-03T20:36:51.130Z,13.10
2018-07-03T20:37:51.124Z,13.22
2018-07-03T20:38:51.064Z,13.04
2018-07-03T20:39:51.059Z,13.23
2018-07-03T20:40:51.018Z,13.12
2018-07-03T20:41:50.986Z,13.15
2018-07-03T20:42:50.914Z,13.19
2018-07-03T20:43:50.910Z,13.26
2018-07-03T20:44:50.850Z,13.20
2018-07-03T20:45:50.801Z,13.04
2018-07-03T20:46:50.795Z,12.96
2018-07-03T20:47:50.741Z,13.04
2018-07-03T20:48:50.726Z,13.00
2018-07-03T20:49:50.677Z,13.00
2018-07-03T20:50:50.640Z,12.97
2018-07-03T20:51:50.668Z,12.86
2018-07-03T20:52:50.548Z,12.78
2018-07-03T20:53:50.526Z,12.71
2018-07-03T20:54:50.535Z,12.59
2018-07-03T20:55:50.513Z,12.67
2018-07-03T20:56:50.423Z,12.49
2018-07-03T20:57:50.394Z,12.54
2018-07-03T20:58:50.377Z,12.42
2018-07-03T20:59:50.307Z,12.45
2018-07-03T21:00:50.264Z,12.39
2018-07-03T21:01:50.244Z,12.37
2018-07-03T21:02:50.210Z,12.38
2018-07-03T21:03:50.237Z,12.28
2018-07-03T21:04:50.125Z,12.38
2018-07-03T21:05:50.228Z,12.39
2018-07-03T21:06:50.058Z,12.29
2018-07-03T21:07:50.018Z,12.37
2018-07-03T21:08:49.996Z,12.31
2018-07-03T21:09:49.969Z,12.24
2018-07-03T21:10:49.923Z,12.21
2018-07-03T21:11:49.886Z,12.23
2018-07-03T21:12:49.839Z,12.12
2018-07-03T21:13:49.822Z,12.13
2018-07-03T21:14:49.773Z,12.21
2018-07-03T21:15:49.736Z,12.29
2018-07-03T21:16:49.748Z,12.21
2018-07-03T21:17:49.675Z,12.21
2018-07-03T21:18:49.622Z,12.27
2018-07-03T21:19:49.596Z,12.29
2018-07-03T21:20:49.567Z,12.20
2018-07-03T21:21:49.555Z,12.19
2018-07-03T21:22:49.498Z,12.07
2018-07-03T21:23:49.509Z,11.90
2018-07-03T21:24:49.426Z,11.70
2018-07-03T21:25:49.382Z,11.60
2018-07-03T21:26:49.344Z,11.46
2018-07-03T21:27:49.329Z,11.47
2018-07-03T21:28:49.275Z,11.47
2018-07-03T21:29:49.250Z,11.44
2018-07-03T21:30:49.195Z,11.58
2018-07-03T21:31:49.192Z,11.62
2018-07-03T21:32:49.107Z,11.61
2018-07-03T21:33:49.087Z,11.70
2018-07-03T21:34:49.091Z,11.65
2018-07-03T21:35:49.028Z,11.72
2018-07-03T21:36:48.972Z,11.64
2018-07-03T21:37:48.919Z,11.69
2018-07-03T21:38:48.969Z,11.54
2018-07-03T21:39:48.862Z,11.60
2018-07-03T21:40:48.832Z,11.57
2018-07-03T21:41:48.784Z,11.47
2018-07-03T21:42:48.740Z,11.47
2018-07-03T21:43:48.783Z,11.43
2018-07-03T21:44:48.714Z,11.33
2018-07-03T21:45:48.649Z,11.33
2018-07-03T21:46:48.614Z,11.21
2018-07-03T21:47:48.581Z,11.18
2018-07-03T21:48:48.545Z,11.22
2018-07-03T21:49:48.525Z,11.21
2018-07-03T21:50:48.472Z,11.11
2018-07-03T21:51:48.428Z,11.09
2018-07-03T21:52:48.417Z,11.02
2018-07-03T21:53:48.373Z,11.00
2018-07-03T21:54:48.338Z,11.02
2018-07-03T21:55:48.316Z,10.97
2018-07-03T21:56:48.237Z,10.92
2018-07-03T21:57:48.209Z,10.96
2018-07-03T21:58:48.190Z,10.89
2018-07-03T21:59:48.182Z,10.99
2018-07-03T22:00:48.107Z,11.00
2018-07-03T22:01:48.096Z,10.96
2018-07-03T22:02:48.002Z,11.06
2018-07-03T22:03:47.998Z,11.07
2018-07-03T22:04:47.991Z,10.91
2018-07-03T22:05:47.887Z,11.03
2018-07-03T22:06:47.881Z,10.92
2018-07-03T22:07:47.822Z,10.89
2018-07-03T22:08:47.782Z,10.86
2018-07-03T22:09:47.744Z,10.76
2018-07-03T22:10:47.733Z,10.70
2018-07-03T22:11:47.721Z,10.61
2018-07-03T22:12:47.634Z,10.59
2018-07-03T22:13:47.610Z,10.42
2018-07-03T22:14:47.561Z,10.42
2018-07-03T22:15:47.522Z,10.44
2018-07-03T22:16:47.483Z,10.45
2018-07-03T22:17:47.454Z,10.44
2018-07-03T22:18:47.459Z,10.45
2018-07-03T22:19:47.386Z,10.44
2018-07-03T22:20:47.335Z,10.47
2018-07-03T22:21:47.366Z,10.36
2018-07-03T22:22:47.262Z,10.45
2018-07-03T22:23:47.209Z,10.38
2018-07-03T22:24:47.174Z,10.38
2018-07-03T22:25:47.138Z,10.38
2018-07-03T22:26:47.114Z,10.33
2018-07-03T22:27:47.072Z,10.32
2018-07-03T22:28:47.090Z,10.27
2018-07-03T22:29:47.100Z,10.36
2018-07-03T22:30:46.968Z,10.51
2018-07-03T22:31:46.939Z,10.52
2018-07-03T22:32:46.926Z,10.56
2018-07-03T22:33:46.846Z,10.60
2018-07-03T22:34:46.862Z,10.63
2018-07-03T22:35:46.772Z,10.61
2018-07-03T22:36:46.728Z,10.48
2018-07-03T22:37:46.693Z,10.55
2018-07-03T22:38:46.811Z,10.47
2018-07-03T22:39:46.752Z,10.44
2018-07-03T22:40:46.594Z,10.51
2018-07-03T22:41:46.554Z,10.41
2018-07-03T22:42:46.601Z,10.47
2018-07-03T22:43:46.471Z,10.40
2018-07-03T22:44:46.423Z,10.30
2018-07-03T22:45:46.406Z,10.23
2018-07-03T22:46:46.401Z,10.15
2018-07-03T22:47:46.312Z,10.09
2018-07-03T22:48:46.336Z,10.15
2018-07-03T22:49:46.289Z,10.09
2018-07-03T22:50:46.203Z,9.97
2018-07-03T22:51:46.162Z,9.89
2018-07-03T22:52:46.195Z,9.99
2018-07-03T22:53:46.098Z,9.94
2018-07-03T22:54:46.059Z,9.93
2018-07-03T22:55:46.011Z,9.93
2018-07-03T22:56:45.985Z,9.93
2018-07-03T22:57:45.938Z,9.99
2018-07-03T22:58:45.895Z,9.91
2018-07-03T22:59:45.865Z,9.83
2018-07-03T23:00:45.832Z,9.84
2018-07-03T23:01:45.806Z,10.02
2018-07-03T23:02:45.763Z,9.96
2018-07-03T23:03:45.744Z,9.99
2018-07-03T23:04:45.659Z,10.02
2018-07-03T23:05:45.660Z,10.05
2018-07-03T23:06:45.620Z,10.05
2018-07-03T23:07:45.572Z,10.04
2018-07-03T23:08:45.533Z,10.01
2018-07-03T23:09:45.479Z,10.01
2018-07-03T23:10:45.456Z,10.02
2018-07-03T23:11:45.400Z,9.90
2018-07-03T23:12:45.374Z,9.78
2018-07-03T23:13:45.313Z,9.86
2018-07-03T23:14:45.309Z,9.76
2018-07-03T23:15:45.246Z,9.74
2018-07-03T23:16:45.214Z,9.69
2018-07-03T23:17:45.185Z,9.64
2018-07-03T23:18:45.150Z,9.47
2018-07-03T23:19:45.094Z,9.42
2018-07-03T23:20:45.064Z,9.47
2018-07-03T23:21:45.036Z,9.38
2018-07-03T23:22:44.986Z,9.35
2018-07-03T23:23:44.932Z,9.39
2018-07-03T23:24:44.911Z,9.43
2018-07-03T23:25:44.858Z,9.40
2018-07-03T23:26:44.834Z,9.38
2018-07-03T23:27:44.792Z,9.40
2018-07-03T23:28:44.746Z,9.43
2018-07-03T23:29:44.715Z,9.35
2018-07-03T23:30:44.674Z,9.29
2018-07-03T23:31:44.635Z,9.21
2018-07-03T23:32:44.663Z,9.20
2018-07-03T23:33:44.569Z,9.23
2018-07-03T23:34:44.507Z,9.24
2018-07-03T23:35:44.470Z,9.23
2018-07-03T23:36:44.442Z,9.28
2018-07-03T23:37:44.400Z,9.13
2018-07-03T23:38:44.387Z,9.18
2018-07-03T23:39:44.333Z,9.23
2018-07-03T23:40:44.345Z,9.26
2018-07-03T23:41:44.235Z,9.29
2018-07-03T23:42:44.224Z,9.33
2018-07-03T23:43:44.179Z,9.39
2018-07-03T23:44:44.153Z,9.31
2018-07-03T23:45:44.106Z,9.36
2018-07-03T23:46:44.086Z,9.42
2018-07-03T23:47:44.016Z,9.43
2018-07-03T23:48:43.993Z,9.32
2018-07-03T23:49:43.947Z,9.26
2018-07-03T23:50:43.907Z,9.23
2018-07-03T23:51:43.859Z,9.20
2018-07-03T23:52:43.843Z,9.23
2018-07-03T23:53:43.821Z,9.18
2018-07-03T23:54:43.750Z,9.21
2018-07-03T23:55:43.789Z,9.17
2018-07-03T23:56:43.723Z,9.20
2018-07-03T23:57:43.631Z,9.23
2018-07-03T23:58:43.600Z,9.23
2018-07-03T23:59:43.557Z,9.24
